TERMINUS DAM (TRM)

Elevation: 752' · KAWEAH R basin · Operator: US Army Corps of Engineers

Provisional data, subject to change.
Query executed Friday at 3:09:54   clock

Select a sensor type for a plot of data.
Note: Reservoir Flows are daily averages.

Earlier

Date RES ELE    STORAGE    RES CHG    TOC STO    ABV TOC    OUTFLOW    INFLOW    FNF    PPT INC    TEMP MN    TEMP MX    WINDLEN    EVP PAN   
 FEET   AF   AF   AF   AF   CFS   CFS   CFS   INCHES   DEG F   DEG F   MILES   INCHES  
06/30/2016 684.76 125762 -- 185300 -- 2332 424 424 0.00 22 41 89 0.37
07/01/2016 682.50 121708 -4054 184251 -62543 2272 251 251 0.00 24 41 105 0.40
07/02/2016 680.37 117937 -3771 181678 -63738 2232 352 350 0.00 22 39 93 0.36
07/03/2016 678.07 113925 -4012 178867 -64939 2235 232 232 0.00 21 38 85 0.35
07/04/2016 675.74 109925 -4000 176155 -66225 2280 282 282 0.00 19 37 82 0.34
07/05/2016 673.24 105705 -4220 173526 -67821 2433 324 274 e 0.00 19 37 89 0.34
07/06/2016 670.45 101085 -4620 170692 -69607 2531 220 274 e 0.00 18 36 91 0.34
07/07/2016 667.62 96496 -4589 167949 -71453 2563 266 266 0.00 17 35 83 0.32
07/08/2016 664.77 91976 -4520 165178 -73202 2513 252 252 0.00 20 37 85 0.34
07/09/2016 662.14 87897 -4079 162461 -74564 2321 279 279 0.00 18 35 74 0.30
07/10/2016 659.45 83816 -4081 159485 -75669 2191 149 149 0.00 18 32 91 0.31
07/11/2016 656.81 79904 -3912 156599 -76695 2150 194 194 0.00 16 34 106 0.34
07/12/2016 654.14 76041 -3863 153706 -77665 2122 191 191 0.00 20 36 101 0.35
07/13/2016 651.34 72092 -3949 150783 -78691 2150 175 175 0.00 20 37 94 0.35
07/14/2016 648.43 68102 -3990 147879 -79777 2180 185 185 0.00 23 39 106 0.37
07/15/2016 645.38 64046 -4056 144921 -80875 2187 158 158 0.00 24 40 99 0.37
07/16/2016 642.30 60083 -3963 141894 -81811 2107 123 123 0.00 20 38 84 0.34
07/17/2016 639.43 56512 -3571 138958 -82446 1956 169 169 0.00 20 38 82 0.34
07/18/2016 636.72 53249 -3263 135846 -82597 1712 80 80 0.00 18 36 87 0.33
07/19/2016 634.28 50403 -2846 132912 -82509 1593 170 170 0.00 17 35 73 0.31
07/20/2016 631.65 47435 -2968 129900 -82465 1614 130 130 0.00 19 36 86 0.33
07/21/2016 628.97 44516 -2919 126943 -82426 1617 158 158 0.00 22 38 98 0.35
07/22/2016 625.97 41378 -3138 123919 -82541 1696 125 125 0.00 19 37 86 0.33
07/23/2016 622.94 38347 -3031 120946 -82599 1667 150 150 0.00 20 38 91 0.34
07/24/2016 620.44 35952 -2395 117943 -81991 1331 135 135 0.00 24 41 99 0.37
07/25/2016 618.21 33898 -2054 114857 -80959 1118 93 93 0.00 24 40 102 0.37
07/26/2016 616.08 32006 -1892 111914 -79908 1108 165 -- 0.00 25 40 113 0.38
07/27/2016 613.67 29951 -2055 132357 -102406 1116 90 -- 0.00 26 42 93 0.36
07/28/2016 611.15 27898 -- 158829 -- 1129 103 -- 0.00 25 42 89 0.34
07/29/2016 -- -- -- -- -- -- -- -- -- -- -- -- --

Later | Latest

Warning! This data is preliminary and subject to revision.

Show TRM Map | Plot TRM Data | 1 Month TRM Data | Real-Time TRM Data | TRM Info